createdAt,value
2018-02-18T00:00:51.095Z,4.12
2018-02-18T00:03:22.055Z,4.15
2018-02-18T00:05:53.037Z,4.09
2018-02-18T00:08:24.045Z,4.01
2018-02-18T00:10:55.130Z,4.05
2018-02-18T00:13:26.151Z,4.13
2018-02-18T00:15:57.231Z,4.05
2018-02-18T00:18:28.253Z,4.03
2018-02-18T00:20:59.249Z,4.09
2018-02-18T00:23:30.227Z,4.05
2018-02-18T00:26:01.257Z,4.01
2018-02-18T00:28:32.288Z,4.02
2018-02-18T00:31:03.310Z,4.02
2018-02-18T00:33:34.283Z,4.05
2018-02-18T00:36:05.277Z,4.04
2018-02-18T00:38:36.257Z,4.00
2018-02-18T00:41:07.276Z,3.94
2018-02-18T00:43:38.288Z,3.92
2018-02-18T00:46:09.283Z,3.95
2018-02-18T00:48:40.270Z,3.96
2018-02-18T00:51:11.299Z,3.99
2018-02-18T00:53:42.338Z,4.04
2018-02-18T00:56:13.315Z,4.05
2018-02-18T00:58:44.329Z,4.03
2018-02-18T01:01:15.370Z,3.99
2018-02-18T01:03:46.366Z,4.01
2018-02-18T01:06:17.351Z,4.03
2018-02-18T01:08:48.355Z,4.06
2018-02-18T01:11:19.346Z,4.04
2018-02-18T01:13:50.339Z,4.07
2018-02-18T01:16:21.346Z,4.07
2018-02-18T01:18:52.334Z,4.04
2018-02-18T01:21:23.351Z,4.05
2018-02-18T01:23:54.343Z,4.02
2018-02-18T01:26:25.318Z,4.02
2018-02-18T01:28:56.357Z,4.00
2018-02-18T01:31:27.471Z,3.98
2018-02-18T01:33:58.467Z,3.96
2018-02-18T01:36:29.473Z,3.96
2018-02-18T01:39:00.465Z,3.88
2018-02-18T01:41:31.497Z,3.92
2018-02-18T01:44:02.483Z,3.96
2018-02-18T01:46:33.491Z,3.98
2018-02-18T01:49:04.517Z,3.96
2018-02-18T01:51:35.554Z,3.93
2018-02-18T01:54:06.559Z,3.91
2018-02-18T01:56:37.580Z,3.95
2018-02-18T01:59:08.613Z,4.03
2018-02-18T02:01:39.613Z,4.10
2018-02-18T02:04:10.601Z,4.00
2018-02-18T02:06:41.569Z,3.99
2018-02-18T02:09:12.608Z,4.02
2018-02-18T02:11:43.664Z,3.97
2018-02-18T02:14:14.704Z,3.94
2018-02-18T02:16:45.692Z,3.95
2018-02-18T02:19:16.661Z,3.97
2018-02-18T02:21:47.699Z,3.95
2018-02-18T02:24:18.718Z,3.93
2018-02-18T02:26:49.747Z,3.92
2018-02-18T02:29:20.727Z,3.91
2018-02-18T02:31:51.757Z,3.85
2018-02-18T02:34:22.794Z,3.87
2018-02-18T02:36:53.811Z,3.84
2018-02-18T02:39:24.999Z,3.77
2018-02-18T02:41:58.823Z,3.76
2018-02-18T02:44:29.885Z,3.69
2018-02-18T02:47:00.882Z,3.66
2018-02-18T02:49:31.890Z,3.70
2018-02-18T02:52:02.920Z,3.77
2018-02-18T02:54:33.897Z,3.78
2018-02-18T02:57:04.940Z,3.83
2018-02-18T02:59:35.906Z,3.81
2018-02-18T03:02:06.913Z,3.85
2018-02-18T03:04:37.910Z,3.93
2018-02-18T03:07:08.969Z,3.94
2018-02-18T03:09:39.989Z,3.98
2018-02-18T03:12:10.984Z,3.95
2018-02-18T03:14:41.972Z,3.87
2018-02-18T03:17:12.961Z,3.83
2018-02-18T03:19:44.033Z,3.74
2018-02-18T03:22:15.000Z,3.73
2018-02-18T03:24:46.004Z,3.72
2018-02-18T03:27:16.986Z,3.68
2018-02-18T03:29:48.001Z,3.68
2018-02-18T03:32:19.004Z,3.64
2018-02-18T03:34:50.044Z,3.61
2018-02-18T03:37:21.040Z,3.55
2018-02-18T03:39:51.998Z,3.58
2018-02-18T03:42:22.995Z,3.64
2018-02-18T03:44:53.978Z,3.65
2018-02-18T03:47:25.022Z,3.65
2018-02-18T03:49:56.044Z,3.64
2018-02-18T03:52:27.002Z,3.60
2018-02-18T03:54:57.969Z,3.55
2018-02-18T03:57:28.974Z,3.45
2018-02-18T03:59:59.943Z,3.31
2018-02-18T04:02:30.957Z,3.23
2018-02-18T04:05:01.978Z,3.06
2018-02-18T04:07:32.969Z,2.97
2018-02-18T04:10:03.961Z,2.88
2018-02-18T04:12:34.958Z,2.78
2018-02-18T04:15:05.971Z,2.71
2018-02-18T04:17:36.985Z,2.65
2018-02-18T04:20:08.022Z,2.56
2018-02-18T04:22:39.029Z,2.47
2018-02-18T04:25:10.023Z,2.43
2018-02-18T04:27:41.059Z,2.35
2018-02-18T04:30:12.085Z,2.31
2018-02-18T04:32:43.071Z,2.23
2018-02-18T04:35:14.078Z,2.21
2018-02-18T04:37:45.060Z,2.20
2018-02-18T04:40:16.029Z,2.25
2018-02-18T04:42:47.030Z,2.28
2018-02-18T04:45:17.972Z,2.30
2018-02-18T04:47:48.964Z,2.32
2018-02-18T04:50:19.949Z,2.32
2018-02-18T04:52:50.935Z,2.28
2018-02-18T04:55:22.008Z,2.23
2018-02-18T04:57:52.996Z,2.18
2018-02-18T05:00:23.976Z,2.15
2018-02-18T05:03:02.042Z,2.12
2018-02-18T05:05:33.013Z,2.07
2018-02-18T05:08:04.060Z,2.04
2018-02-18T05:10:35.012Z,2.05
2018-02-18T05:13:05.963Z,2.03
2018-02-18T05:15:36.983Z,2.02
2018-02-18T05:18:08.021Z,1.98
2018-02-18T05:20:39.047Z,1.91
2018-02-18T05:23:10.048Z,1.84
2018-02-18T05:25:41.077Z,1.78
2018-02-18T05:28:12.068Z,1.76
2018-02-18T05:30:43.037Z,1.75
2018-02-18T05:33:14.054Z,1.80
2018-02-18T05:35:45.047Z,1.83
2018-02-18T05:38:16.016Z,1.91
2018-02-18T05:40:46.974Z,2.02
2018-02-18T05:43:18.006Z,2.14
2018-02-18T05:45:49.011Z,2.32
2018-02-18T05:48:20.034Z,2.50
2018-02-18T05:50:51.000Z,2.67
2018-02-18T05:53:22.037Z,2.74
2018-02-18T05:55:53.057Z,2.76
2018-02-18T05:58:24.041Z,2.77
2018-02-18T06:01:02.158Z,2.82
2018-02-18T06:03:33.139Z,2.86
2018-02-18T06:06:04.170Z,2.92
2018-02-18T06:08:35.180Z,3.00
2018-02-18T06:11:06.203Z,3.05
2018-02-18T06:13:37.215Z,3.11
2018-02-18T06:16:08.213Z,3.18
2018-02-18T06:18:39.213Z,3.27
2018-02-18T06:21:10.228Z,3.29
2018-02-18T06:23:41.256Z,3.31
2018-02-18T06:26:12.260Z,3.35
2018-02-18T06:28:43.291Z,3.39
2018-02-18T06:31:14.300Z,3.47
2018-02-18T06:33:45.279Z,3.58
2018-02-18T06:36:16.284Z,3.64
2018-02-18T06:38:47.282Z,3.70
2018-02-18T06:41:18.274Z,3.73
2018-02-18T06:43:49.264Z,3.82
2018-02-18T06:46:20.217Z,3.81
2018-02-18T06:48:51.227Z,3.70
2018-02-18T06:51:22.204Z,3.71
2018-02-18T06:53:53.184Z,3.78
2018-02-18T06:56:24.199Z,3.86
2018-02-18T06:58:55.182Z,4.02
2018-02-18T07:01:26.186Z,4.09
2018-02-18T07:03:57.208Z,4.15
2018-02-18T07:06:28.201Z,4.23
2018-02-18T07:08:59.258Z,4.30
2018-02-18T07:11:30.263Z,4.30
2018-02-18T07:14:01.274Z,4.17
2018-02-18T07:16:32.269Z,4.25
2018-02-18T07:19:03.288Z,4.28
2018-02-18T07:21:34.256Z,4.29
2018-02-18T07:24:05.249Z,4.26
2018-02-18T07:26:36.260Z,4.38
2018-02-18T07:29:07.248Z,4.32
2018-02-18T07:31:38.230Z,4.38
2018-02-18T07:34:09.272Z,4.43
2018-02-18T07:36:40.284Z,4.48
2018-02-18T07:39:11.275Z,4.50
2018-02-18T07:41:42.268Z,4.39
2018-02-18T07:44:13.275Z,4.50
2018-02-18T07:46:44.287Z,4.47
2018-02-18T07:49:15.323Z,4.41
2018-02-18T07:51:46.369Z,4.72
2018-02-18T07:54:17.413Z,5.03
2018-02-18T07:56:48.516Z,5.50
2018-02-18T07:59:19.539Z,5.81
2018-02-18T08:01:50.577Z,5.76
2018-02-18T08:04:21.750Z,5.63
2018-02-18T08:06:52.747Z,5.60
2018-02-18T08:09:23.813Z,5.61
2018-02-18T08:11:54.811Z,5.73
2018-02-18T08:14:25.845Z,5.58
2018-02-18T08:16:56.855Z,5.58
2018-02-18T08:19:27.868Z,5.45
2018-02-18T08:21:58.875Z,5.47
2018-02-18T08:24:29.949Z,5.43
2018-02-18T08:27:00.939Z,5.55
2018-02-18T08:29:31.991Z,5.65
2018-02-18T08:32:03.002Z,5.81
2018-02-18T08:34:34.104Z,5.81
2018-02-18T08:37:05.086Z,5.75
2018-02-18T08:39:36.118Z,5.90
2018-02-18T08:42:07.123Z,6.19
2018-02-18T08:44:38.136Z,6.47
2018-02-18T08:47:09.143Z,6.72
2018-02-18T08:49:40.175Z,6.96
2018-02-18T08:52:11.197Z,7.18
2018-02-18T08:54:42.236Z,6.95
2018-02-18T08:57:13.193Z,7.03
2018-02-18T08:59:44.249Z,7.03
2018-02-18T09:02:15.215Z,7.09
2018-02-18T09:04:46.292Z,7.19
2018-02-18T09:07:17.440Z,7.31
2018-02-18T09:09:55.532Z,7.36
2018-02-18T09:12:33.339Z,7.46
2018-02-18T09:15:04.328Z,7.70
2018-02-18T09:17:35.318Z,7.96
2018-02-18T09:20:06.320Z,8.28
2018-02-18T09:22:37.369Z,8.25
2018-02-18T09:25:08.375Z,8.19
2018-02-18T09:27:39.458Z,8.25
2018-02-18T09:30:10.440Z,8.28
2018-02-18T09:32:41.452Z,8.39
2018-02-18T09:35:12.443Z,8.50
2018-02-18T09:37:43.475Z,8.59
2018-02-18T09:40:14.504Z,8.56
2018-02-18T09:42:45.592Z,8.78
2018-02-18T09:45:16.574Z,9.11
2018-02-18T09:47:47.620Z,9.27
2018-02-18T09:50:18.593Z,9.33
2018-02-18T09:52:49.632Z,8.99
2018-02-18T09:55:20.641Z,9.09
2018-02-18T09:57:51.641Z,9.22
2018-02-18T10:00:22.620Z,8.91
2018-02-18T10:02:53.644Z,8.53
2018-02-18T10:05:24.631Z,8.63
2018-02-18T10:07:55.691Z,8.73
2018-02-18T10:10:26.705Z,8.98
2018-02-18T10:12:58.699Z,9.61
2018-02-18T10:15:29.708Z,10.06
2018-02-18T10:18:00.763Z,10.30
2018-02-18T10:20:31.722Z,10.50
2018-02-18T10:23:02.744Z,10.70
2018-02-18T10:25:33.755Z,10.88
2018-02-18T10:28:04.773Z,10.61
2018-02-18T10:30:35.781Z,10.34
2018-02-18T10:33:06.793Z,10.12
2018-02-18T10:35:37.818Z,10.15
2018-02-18T10:38:08.887Z,10.54
2018-02-18T10:40:39.879Z,11.22
2018-02-18T10:43:10.875Z,11.90
2018-02-18T10:45:41.873Z,12.52
2018-02-18T10:48:12.864Z,13.11
2018-02-18T10:50:43.980Z,13.61
2018-02-18T10:53:14.964Z,13.28
2018-02-18T10:55:46.079Z,12.52
2018-02-18T10:58:17.100Z,12.30
2018-02-18T11:00:48.092Z,11.82
2018-02-18T11:03:19.087Z,11.66
2018-02-18T11:05:50.040Z,12.32
2018-02-18T11:08:21.083Z,12.96
2018-02-18T11:10:52.157Z,13.72
2018-02-18T11:13:23.140Z,14.33
2018-02-18T11:15:54.168Z,15.15
2018-02-18T11:18:25.172Z,15.92
2018-02-18T11:20:56.204Z,16.44
2018-02-18T11:23:27.246Z,17.58
2018-02-18T11:25:58.284Z,18.18
2018-02-18T11:28:29.236Z,17.92
2018-02-18T11:31:00.264Z,17.28
2018-02-18T11:33:31.357Z,15.83
2018-02-18T11:36:02.373Z,14.93
2018-02-18T11:38:33.460Z,14.62
2018-02-18T11:41:04.485Z,14.78
2018-02-18T11:43:35.468Z,15.13
2018-02-18T11:46:06.447Z,15.13
2018-02-18T11:48:37.411Z,14.93
2018-02-18T11:51:08.409Z,14.96
2018-02-18T11:53:39.412Z,14.41
2018-02-18T11:56:10.439Z,14.25
2018-02-18T11:58:41.485Z,14.86
2018-02-18T12:01:12.481Z,14.97
2018-02-18T12:03:43.496Z,14.61
2018-02-18T12:06:14.562Z,14.02
2018-02-18T12:08:45.561Z,13.10
2018-02-18T12:11:16.628Z,12.60
2018-02-18T12:13:47.629Z,12.48
2018-02-18T12:16:18.649Z,12.01
2018-02-18T12:18:49.633Z,11.20
2018-02-18T12:21:20.640Z,11.05
2018-02-18T12:23:51.620Z,10.70
2018-02-18T12:26:22.622Z,10.36
2018-02-18T12:28:53.616Z,10.22
2018-02-18T12:31:25.414Z,9.76
2018-02-18T12:33:56.407Z,9.55
2018-02-18T12:36:27.430Z,9.05
2018-02-18T12:38:58.410Z,9.08
2018-02-18T12:41:30.186Z,8.80
2018-02-18T12:44:01.212Z,8.84
2018-02-18T12:46:32.239Z,9.12
2018-02-18T12:49:03.248Z,9.23
2018-02-18T12:51:34.251Z,9.17
2018-02-18T12:54:05.227Z,9.43
2018-02-18T12:56:36.208Z,9.96
2018-02-18T12:59:07.180Z,10.29
2018-02-18T13:01:38.161Z,10.22
2018-02-18T13:04:09.163Z,10.14
2018-02-18T13:06:40.148Z,10.07
2018-02-18T13:09:11.134Z,9.96
2018-02-18T13:11:42.082Z,9.77
2018-02-18T13:14:13.055Z,9.86
2018-02-18T13:16:44.035Z,10.07
2018-02-18T13:19:15.119Z,10.34
2018-02-18T13:21:46.122Z,10.21
2018-02-18T13:24:17.126Z,10.51
2018-02-18T13:26:48.135Z,10.55
2018-02-18T13:29:19.172Z,10.44
2018-02-18T13:31:50.136Z,10.03
2018-02-18T13:34:21.121Z,9.13
2018-02-18T13:36:52.169Z,8.65
2018-02-18T13:39:23.176Z,8.19
2018-02-18T13:41:54.244Z,8.16
2018-02-18T13:44:25.242Z,8.28
2018-02-18T13:46:56.237Z,8.41
2018-02-18T13:49:27.238Z,8.72
2018-02-18T13:51:58.257Z,8.86
2018-02-18T13:54:29.256Z,8.90
2018-02-18T13:57:00.254Z,9.10
2018-02-18T13:59:31.306Z,9.35
2018-02-18T14:02:02.271Z,9.45
2018-02-18T14:04:34.880Z,9.34
2018-02-18T14:07:05.848Z,9.02
2018-02-18T14:09:36.833Z,8.76
2018-02-18T14:12:07.813Z,8.33
2018-02-18T14:14:38.854Z,8.18
2018-02-18T14:17:09.879Z,8.00
2018-02-18T14:19:40.888Z,7.78
2018-02-18T14:22:11.919Z,7.68
2018-02-18T14:24:42.930Z,7.64
2018-02-18T14:27:13.965Z,7.56
2018-02-18T14:29:44.935Z,7.80
2018-02-18T14:32:15.995Z,8.14
2018-02-18T14:34:47.034Z,8.12
2018-02-18T14:37:18.038Z,8.07
2018-02-18T14:39:49.107Z,8.12
2018-02-18T14:42:32.384Z,8.10
2018-02-18T14:45:15.632Z,7.89
2018-02-18T14:47:58.826Z,7.88
2018-02-18T14:50:42.257Z,7.76
2018-02-18T14:53:25.365Z,7.55
2018-02-18T14:56:08.741Z,7.47
2018-02-18T14:58:39.708Z,7.29
2018-02-18T15:01:10.739Z,7.19
2018-02-18T15:03:41.780Z,7.22
2018-02-18T15:06:12.811Z,7.36
2018-02-18T15:08:43.818Z,7.49
2018-02-18T15:11:14.867Z,7.55
2018-02-18T15:13:45.880Z,7.59
2018-02-18T15:16:16.891Z,7.61
2018-02-18T15:18:47.892Z,7.56
2018-02-18T15:21:18.905Z,7.49
2018-02-18T15:23:49.943Z,7.54
2018-02-18T15:26:20.932Z,7.45
2018-02-18T15:28:51.918Z,7.39
2018-02-18T15:31:22.933Z,7.42
2018-02-18T15:33:53.961Z,7.49
2018-02-18T15:36:25.003Z,7.56
2018-02-18T15:38:55.981Z,7.58
2018-02-18T15:41:26.994Z,7.57
2018-02-18T15:43:57.978Z,7.57
2018-02-18T15:46:29.020Z,7.61
2018-02-18T15:48:59.996Z,7.57
2018-02-18T15:51:31.020Z,7.64
2018-02-18T15:54:02.034Z,7.59
2018-02-18T15:56:33.053Z,7.45
2018-02-18T15:59:04.077Z,7.48
2018-02-18T16:01:35.042Z,7.50
2018-02-18T16:04:06.069Z,7.44
2018-02-18T16:06:37.547Z,7.13
2018-02-18T16:09:08.544Z,6.95
2018-02-18T16:11:39.551Z,6.94
2018-02-18T16:14:10.577Z,6.79
2018-02-18T16:16:41.630Z,6.72
2018-02-18T16:19:12.616Z,6.69
2018-02-18T16:21:43.633Z,6.65
2018-02-18T16:24:14.640Z,6.68
2018-02-18T16:26:45.669Z,6.58
2018-02-18T16:29:16.703Z,6.47
2018-02-18T16:31:47.719Z,6.49
2018-02-18T16:34:18.786Z,6.48
2018-02-18T16:36:49.744Z,6.50
2018-02-18T16:39:20.719Z,6.50
2018-02-18T16:41:51.757Z,6.51
2018-02-18T16:44:22.758Z,6.46
2018-02-18T16:46:53.735Z,6.31
2018-02-18T16:49:24.763Z,6.10
2018-02-18T16:51:55.738Z,5.81
2018-02-18T16:54:26.764Z,5.53
2018-02-18T16:56:57.793Z,5.29
2018-02-18T16:59:28.881Z,5.13
2018-02-18T17:01:59.879Z,4.93
2018-02-18T17:04:30.873Z,4.76
2018-02-18T17:07:01.882Z,4.63
2018-02-18T17:09:32.890Z,4.50
2018-02-18T17:12:03.892Z,4.43
2018-02-18T17:14:34.953Z,4.31
2018-02-18T17:17:05.989Z,4.27
2018-02-18T17:19:37.005Z,4.26
2018-02-18T17:22:08.032Z,4.18
2018-02-18T17:24:39.004Z,4.13
2018-02-18T17:27:10.046Z,4.03
2018-02-18T17:29:41.087Z,3.96
2018-02-18T17:32:12.135Z,3.91
2018-02-18T17:34:43.142Z,3.88
2018-02-18T17:37:14.135Z,3.85
2018-02-18T17:39:45.298Z,3.79
2018-02-18T17:42:16.339Z,3.75
2018-02-18T17:44:47.345Z,3.71
2018-02-18T17:47:18.397Z,3.68
2018-02-18T17:49:49.414Z,3.61
2018-02-18T17:52:20.421Z,3.49
2018-02-18T17:54:51.435Z,3.44
2018-02-18T17:57:22.457Z,3.36
2018-02-18T17:59:53.529Z,3.24
2018-02-18T18:02:24.560Z,3.15
2018-02-18T18:04:55.583Z,3.16
2018-02-18T18:07:26.580Z,3.15
2018-02-18T18:09:57.614Z,3.11
2018-02-18T18:12:28.597Z,3.08
2018-02-18T18:14:59.641Z,3.04
2018-02-18T18:17:30.665Z,2.99
2018-02-18T18:20:01.696Z,2.93
2018-02-18T18:22:32.697Z,2.94
2018-02-18T18:25:03.658Z,2.90
2018-02-18T18:27:34.716Z,2.90
2018-02-18T18:30:05.762Z,2.89
2018-02-18T18:32:36.793Z,2.91
2018-02-18T18:35:07.841Z,3.02
2018-02-18T18:37:38.878Z,3.17
2018-02-18T18:40:09.935Z,3.26
2018-02-18T18:42:40.909Z,3.38
2018-02-18T18:45:11.956Z,3.54
2018-02-18T18:47:42.941Z,3.67
2018-02-18T18:50:13.999Z,3.87
2018-02-18T18:52:44.964Z,3.96
2018-02-18T18:55:15.998Z,4.06
2018-02-18T18:57:46.979Z,4.09
2018-02-18T19:00:18.056Z,4.16
2018-02-18T19:02:48.975Z,4.20
2018-02-18T19:05:20.124Z,4.18
2018-02-18T19:07:51.117Z,4.06
2018-02-18T19:10:22.117Z,3.91
2018-02-18T19:12:53.118Z,4.01
2018-02-18T19:15:24.096Z,4.10
2018-02-18T19:17:55.112Z,4.18
2018-02-18T19:20:26.083Z,4.22
2018-02-18T19:22:57.106Z,4.30
2018-02-18T19:25:28.109Z,4.25
2018-02-18T19:27:59.101Z,4.18
2018-02-18T19:30:30.168Z,4.22
2018-02-18T19:33:01.168Z,4.25
2018-02-18T19:35:32.171Z,4.10
2018-02-18T19:38:03.167Z,3.88
2018-02-18T19:40:34.195Z,3.68
2018-02-18T19:43:05.203Z,3.47
2018-02-18T19:45:36.273Z,3.19
2018-02-18T19:48:07.289Z,3.08
2018-02-18T19:50:38.334Z,3.00
2018-02-18T19:53:09.309Z,2.91
2018-02-18T19:55:40.417Z,2.72
2018-02-18T19:58:11.399Z,2.70
2018-02-18T20:00:42.380Z,2.63
2018-02-18T20:03:13.355Z,2.58
2018-02-18T20:05:44.362Z,2.50
2018-02-18T20:08:15.338Z,2.44
2018-02-18T20:10:46.365Z,2.42
2018-02-18T20:13:17.411Z,2.38
2018-02-18T20:15:48.435Z,2.35
2018-02-18T20:18:19.380Z,2.32
2018-02-18T20:20:50.428Z,2.28
2018-02-18T20:23:21.509Z,2.28
2018-02-18T20:25:52.503Z,2.24
2018-02-18T20:28:23.594Z,2.23
2018-02-18T20:30:54.585Z,2.22
2018-02-18T20:33:25.632Z,2.18
2018-02-18T20:35:56.609Z,2.15
2018-02-18T20:38:27.674Z,2.10
2018-02-18T20:40:58.619Z,2.05
2018-02-18T20:43:29.635Z,2.04
2018-02-18T20:46:00.662Z,1.98
2018-02-18T20:48:31.679Z,1.96
2018-02-18T20:51:02.674Z,1.92
2018-02-18T20:53:33.699Z,1.90
2018-02-18T20:56:04.758Z,1.83
2018-02-18T20:58:35.791Z,1.77
2018-02-18T21:01:06.808Z,1.71
2018-02-18T21:03:37.800Z,1.69
2018-02-18T21:06:08.809Z,1.62
2018-02-18T21:08:39.806Z,1.56
2018-02-18T21:11:10.844Z,1.56
2018-02-18T21:13:41.880Z,1.53
2018-02-18T21:16:12.833Z,1.51
2018-02-18T21:18:43.843Z,1.48
2018-02-18T21:21:14.849Z,1.44
2018-02-18T21:23:45.835Z,1.45
2018-02-18T21:26:16.870Z,1.43
2018-02-18T21:28:47.853Z,1.37
2018-02-18T21:31:18.873Z,1.36
2018-02-18T21:33:49.863Z,1.32
2018-02-18T21:36:21.025Z,1.29
2018-02-18T21:38:52.016Z,1.29
2018-02-18T21:41:22.979Z,1.25
2018-02-18T21:44:00.920Z,1.28
2018-02-18T21:46:31.930Z,1.26
2018-02-18T21:49:02.944Z,1.24
2018-02-18T21:51:33.935Z,1.22
2018-02-18T21:54:04.926Z,1.17
2018-02-18T21:56:35.922Z,1.13
2018-02-18T21:59:07.057Z,1.06
2018-02-18T22:01:38.060Z,1.04
2018-02-18T22:04:09.081Z,0.99
2018-02-18T22:06:40.037Z,0.93
2018-02-18T22:09:11.047Z,0.92
2018-02-18T22:11:42.055Z,0.87
2018-02-18T22:14:13.059Z,0.85
2018-02-18T22:16:44.039Z,0.83
2018-02-18T22:19:15.049Z,0.79
2018-02-18T22:21:45.997Z,0.82
2018-02-18T22:24:17.049Z,0.76
2018-02-18T22:26:48.071Z,0.69
2018-02-18T22:29:19.040Z,0.67
2018-02-18T22:31:50.056Z,0.65
2018-02-18T22:34:21.043Z,0.62
2018-02-18T22:36:52.048Z,0.60
2018-02-18T22:39:23.004Z,0.58
2018-02-18T22:41:54.032Z,0.60
2018-02-18T22:44:25.007Z,0.55
2018-02-18T22:46:56.049Z,0.56
2018-02-18T22:49:27.050Z,0.52
2018-02-18T22:51:58.086Z,0.50
2018-02-18T22:54:29.048Z,0.52
2018-02-18T22:57:00.066Z,0.46
2018-02-18T22:59:31.189Z,0.43
2018-02-18T23:02:02.261Z,0.42
2018-02-18T23:04:33.269Z,0.33
2018-02-18T23:07:07.168Z,0.32
2018-02-18T23:09:38.155Z,0.26
2018-02-18T23:12:09.177Z,0.28
2018-02-18T23:14:40.220Z,0.26
2018-02-18T23:17:11.212Z,0.29
2018-02-18T23:19:42.235Z,0.25
2018-02-18T23:22:13.209Z,0.20
2018-02-18T23:24:44.201Z,0.13
2018-02-18T23:27:15.206Z,0.15
2018-02-18T23:29:46.156Z,0.14
2018-02-18T23:32:17.175Z,0.18
2018-02-18T23:34:48.137Z,0.14
2018-02-18T23:37:19.181Z,0.20
2018-02-18T23:39:50.250Z,0.12
2018-02-18T23:42:21.240Z,0.06
2018-02-18T23:44:52.277Z,0.03
2018-02-18T23:47:23.249Z,0.03
2018-02-18T23:49:54.266Z,0.00
2018-02-18T23:52:25.199Z,0.02
2018-02-18T23:54:56.187Z,0.03
2018-02-18T23:57:27.186Z,0.02
2018-02-18T23:59:58.373Z,0.05
